sensor_id;sensor_type;location;lat;lon;timestamp;P1;durP1;ratioP1;P2;durP2;ratioP2
6463;SDS011;3265;42.694;23.282;2024-02-14T00:11:56;10.93;;;7.03;;
6463;SDS011;3265;42.694;23.282;2024-02-14T00:31:56;10.07;;;7.47;;
6463;SDS011;3265;42.694;23.282;2024-02-14T01:47:57;11.23;;;8.10;;
6463;SDS011;3265;42.694;23.282;2024-02-14T02:00:01;13.07;;;9.00;;
6463;SDS011;3265;42.694;23.282;2024-02-14T03:32:00;13.60;;;9.67;;
6463;SDS011;3265;42.694;23.282;2024-02-14T04:49:57;19.23;;;12.67;;
6463;SDS011;3265;42.694;23.282;2024-02-14T05:44:03;23.00;;;13.90;;
6463;SDS011;3265;42.694;23.282;2024-02-14T06:02:37;20.60;;;12.67;;
6463;SDS011;3265;42.694;23.282;2024-02-14T06:05:06;19.50;;;12.87;;
6463;SDS011;3265;42.694;23.282;2024-02-14T06:07:34;20.37;;;12.33;;
6463;SDS011;3265;42.694;23.282;2024-02-14T06:10:01;19.43;;;12.77;;
6463;SDS011;3265;42.694;23.282;2024-02-14T06:12:28;23.07;;;13.73;;
6463;SDS011;3265;42.694;23.282;2024-02-14T06:14:55;19.17;;;12.60;;
6463;SDS011;3265;42.694;23.282;2024-02-14T06:17:21;20.40;;;12.70;;
6463;SDS011;3265;42.694;23.282;2024-02-14T06:19:50;16.93;;;12.07;;
6463;SDS011;3265;42.694;23.282;2024-02-14T06:22:17;18.67;;;11.90;;
6463;SDS011;3265;42.694;23.282;2024-02-14T06:24:43;18.90;;;11.67;;
6463;SDS011;3265;42.694;23.282;2024-02-14T06:27:10;18.60;;;12.20;;
6463;SDS011;3265;42.694;23.282;2024-02-14T06:29:38;16.47;;;11.87;;
6463;SDS011;3265;42.694;23.282;2024-02-14T06:32:08;18.50;;;11.70;;
6463;SDS011;3265;42.694;23.282;2024-02-14T06:34:35;20.70;;;12.07;;
6463;SDS011;3265;42.694;23.282;2024-02-14T06:37:03;19.07;;;12.47;;
6463;SDS011;3265;42.694;23.282;2024-02-14T06:39:30;26.57;;;12.00;;
6463;SDS011;3265;42.694;23.282;2024-02-14T06:41:57;20.53;;;11.70;;
6463;SDS011;3265;42.694;23.282;2024-02-14T06:44:24;19.90;;;11.90;;
6463;SDS011;3265;42.694;23.282;2024-02-14T06:46:51;18.90;;;12.00;;
6463;SDS011;3265;42.694;23.282;2024-02-14T06:49:17;20.97;;;12.10;;
6463;SDS011;3265;42.694;23.282;2024-02-14T06:51:44;16.33;;;10.97;;
6463;SDS011;3265;42.694;23.282;2024-02-14T06:54:12;16.03;;;10.73;;
6463;SDS011;3265;42.694;23.282;2024-02-14T06:56:39;17.80;;;11.40;;
6463;SDS011;3265;42.694;23.282;2024-02-14T06:59:06;14.60;;;10.33;;
6463;SDS011;3265;42.694;23.282;2024-02-14T07:01:32;16.47;;;10.50;;
6463;SDS011;3265;42.694;23.282;2024-02-14T07:03:59;16.00;;;11.30;;
6463;SDS011;3265;42.694;23.282;2024-02-14T07:06:26;13.37;;;9.77;;
6463;SDS011;3265;42.694;23.282;2024-02-14T07:08:53;13.20;;;9.53;;
6463;SDS011;3265;42.694;23.282;2024-02-14T07:11:21;14.07;;;9.23;;
6463;SDS011;3265;42.694;23.282;2024-02-14T07:23:00;14.47;;;9.57;;
6463;SDS011;3265;42.694;23.282;2024-02-14T07:31:59;14.67;;;9.50;;
6463;SDS011;3265;42.694;23.282;2024-02-14T11:02:23;15.43;;;9.30;;
6463;SDS011;3265;42.694;23.282;2024-02-14T11:04:52;15.23;;;9.90;;
6463;SDS011;3265;42.694;23.282;2024-02-14T11:07:19;14.10;;;9.20;;
6463;SDS011;3265;42.694;23.282;2024-02-14T11:09:48;14.87;;;9.93;;
6463;SDS011;3265;42.694;23.282;2024-02-14T11:12:15;22.47;;;13.70;;
6463;SDS011;3265;42.694;23.282;2024-02-14T11:14:44;20.13;;;12.70;;
6463;SDS011;3265;42.694;23.282;2024-02-14T11:17:12;14.43;;;9.13;;
6463;SDS011;3265;42.694;23.282;2024-02-14T11:19:40;17.17;;;9.53;;
6463;SDS011;3265;42.694;23.282;2024-02-14T11:22:11;16.50;;;9.73;;
6463;SDS011;3265;42.694;23.282;2024-02-14T11:24:39;17.80;;;11.33;;
6463;SDS011;3265;42.694;23.282;2024-02-14T11:27:09;18.07;;;10.53;;
6463;SDS011;3265;42.694;23.282;2024-02-14T11:29:38;18.90;;;12.57;;
6463;SDS011;3265;42.694;23.282;2024-02-14T11:32:08;20.77;;;13.70;;
6463;SDS011;3265;42.694;23.282;2024-02-14T11:34:54;20.23;;;11.70;;
6463;SDS011;3265;42.694;23.282;2024-02-14T11:37:28;17.70;;;10.50;;
6463;SDS011;3265;42.694;23.282;2024-02-14T11:39:56;14.67;;;9.83;;
6463;SDS011;3265;42.694;23.282;2024-02-14T11:42:23;15.10;;;10.20;;
6463;SDS011;3265;42.694;23.282;2024-02-14T11:44:50;20.07;;;11.13;;
6463;SDS011;3265;42.694;23.282;2024-02-14T11:47:17;14.80;;;10.67;;
6463;SDS011;3265;42.694;23.282;2024-02-14T11:49:44;14.63;;;10.87;;
6463;SDS011;3265;42.694;23.282;2024-02-14T11:52:13;15.10;;;9.73;;
6463;SDS011;3265;42.694;23.282;2024-02-14T11:54:45;13.63;;;9.17;;
6463;SDS011;3265;42.694;23.282;2024-02-14T11:57:16;14.37;;;8.93;;
6463;SDS011;3265;42.694;23.282;2024-02-14T11:59:45;15.43;;;9.70;;
6463;SDS011;3265;42.694;23.282;2024-02-14T12:02:13;16.47;;;9.07;;
6463;SDS011;3265;42.694;23.282;2024-02-14T12:04:41;13.17;;;9.30;;
6463;SDS011;3265;42.694;23.282;2024-02-14T12:07:10;16.03;;;9.10;;
6463;SDS011;3265;42.694;23.282;2024-02-14T12:13:25;14.67;;;8.10;;
6463;SDS011;3265;42.694;23.282;2024-02-14T12:58:58;19.13;;;9.53;;
6463;SDS011;3265;42.694;23.282;2024-02-14T13:49:06;17.67;;;10.00;;
6463;SDS011;3265;42.694;23.282;2024-02-14T14:46:03;14.00;;;8.90;;
6463;SDS011;3265;42.694;23.282;2024-02-14T15:26:07;19.77;;;9.33;;
6463;SDS011;3265;42.694;23.282;2024-02-14T18:28:01;19.13;;;10.37;;
6463;SDS011;3265;42.694;23.282;2024-02-14T18:33:58;15.50;;;10.17;;
